sensor_id;sensor_type;location;lat;lon;timestamp;temperature;humidity
66928;DHT22;59882;45.624;11.698;2022-08-26T00:01:53;27.30;58.10
66928;DHT22;59882;45.624;11.698;2022-08-26T00:04:19;27.30;58.20
66928;DHT22;59882;45.624;11.698;2022-08-26T00:06:45;27.20;58.20
66928;DHT22;59882;45.624;11.698;2022-08-26T00:09:11;27.20;58.40
66928;DHT22;59882;45.624;11.698;2022-08-26T00:11:36;27.10;58.20
66928;DHT22;59882;45.624;11.698;2022-08-26T00:14:02;27.10;58.10
66928;DHT22;59882;45.624;11.698;2022-08-26T00:16:28;27.10;58.70
66928;DHT22;59882;45.624;11.698;2022-08-26T00:18:54;27.10;58.20
66928;DHT22;59882;45.624;11.698;2022-08-26T00:21:20;27.10;57.80
66928;DHT22;59882;45.624;11.698;2022-08-26T00:23:46;27.10;58.40
66928;DHT22;59882;45.624;11.698;2022-08-26T00:26:12;27.10;58.50
66928;DHT22;59882;45.624;11.698;2022-08-26T00:28:38;27.00;58.50
66928;DHT22;59882;45.624;11.698;2022-08-26T00:31:04;26.90;59.40
66928;DHT22;59882;45.624;11.698;2022-08-26T00:33:30;26.90;59.90
66928;DHT22;59882;45.624;11.698;2022-08-26T00:35:56;26.80;59.80
66928;DHT22;59882;45.624;11.698;2022-08-26T00:38:22;26.70;59.70
66928;DHT22;59882;45.624;11.698;2022-08-26T00:40:52;26.70;59.60
66928;DHT22;59882;45.624;11.698;2022-08-26T00:43:19;26.70;59.20
66928;DHT22;59882;45.624;11.698;2022-08-26T00:46:07;26.70;59.50
66928;DHT22;59882;45.624;11.698;2022-08-26T00:48:37;26.60;59.70
66928;DHT22;59882;45.624;11.698;2022-08-26T00:51:30;26.60;59.70
66928;DHT22;59882;45.624;11.698;2022-08-26T00:54:02;26.60;59.60
66928;DHT22;59882;45.624;11.698;2022-08-26T00:59:00;26.60;59.60
66928;DHT22;59882;45.624;11.698;2022-08-26T01:01:26;26.60;59.10
66928;DHT22;59882;45.624;11.698;2022-08-26T01:03:53;26.50;59.40
66928;DHT22;59882;45.624;11.698;2022-08-26T01:06:20;26.50;59.60
66928;DHT22;59882;45.624;11.698;2022-08-26T01:08:46;26.50;59.70
66928;DHT22;59882;45.624;11.698;2022-08-26T01:11:12;26.40;59.30
66928;DHT22;59882;45.624;11.698;2022-08-26T01:13:39;26.40;59.50
66928;DHT22;59882;45.624;11.698;2022-08-26T01:16:06;26.40;59.60
66928;DHT22;59882;45.624;11.698;2022-08-26T01:18:34;26.40;59.70
66928;DHT22;59882;45.624;11.698;2022-08-26T01:23:36;26.40;59.80
66928;DHT22;59882;45.624;11.698;2022-08-26T01:26:15;26.40;59.60
66928;DHT22;59882;45.624;11.698;2022-08-26T01:28:41;26.40;59.30
66928;DHT22;59882;45.624;11.698;2022-08-26T01:31:10;26.40;59.50
66928;DHT22;59882;45.624;11.698;2022-08-26T01:34:02;26.40;59.10
66928;DHT22;59882;45.624;11.698;2022-08-26T01:36:29;26.40;59.10
66928;DHT22;59882;45.624;11.698;2022-08-26T01:38:55;26.40;59.20
66928;DHT22;59882;45.624;11.698;2022-08-26T01:41:21;26.40;59.80
66928;DHT22;59882;45.624;11.698;2022-08-26T01:43:51;26.30;60.10
66928;DHT22;59882;45.624;11.698;2022-08-26T01:46:19;26.30;60.40
66928;DHT22;59882;45.624;11.698;2022-08-26T01:48:47;26.20;60.80
66928;DHT22;59882;45.624;11.698;2022-08-26T01:51:14;26.20;61.10
66928;DHT22;59882;45.624;11.698;2022-08-26T01:53:41;26.10;61.20
66928;DHT22;59882;45.624;11.698;2022-08-26T01:56:09;26.10;61.10
66928;DHT22;59882;45.624;11.698;2022-08-26T02:01:02;26.00;61.20
66928;DHT22;59882;45.624;11.698;2022-08-26T02:03:28;26.10;61.10
66928;DHT22;59882;45.624;11.698;2022-08-26T02:06:01;26.10;61.00
66928;DHT22;59882;45.624;11.698;2022-08-26T02:08:43;26.10;60.70
66928;DHT22;59882;45.624;11.698;2022-08-26T02:11:10;26.10;60.30
66928;DHT22;59882;45.624;11.698;2022-08-26T02:13:39;26.10;60.60
66928;DHT22;59882;45.624;11.698;2022-08-26T02:16:07;26.10;60.70
66928;DHT22;59882;45.624;11.698;2022-08-26T02:18:36;26.00;60.90
66928;DHT22;59882;45.624;11.698;2022-08-26T02:21:03;26.00;61.10
66928;DHT22;59882;45.624;11.698;2022-08-26T02:23:30;25.90;61.20
66928;DHT22;59882;45.624;11.698;2022-08-26T02:26:18;25.90;61.20
66928;DHT22;59882;45.624;11.698;2022-08-26T02:29:04;25.90;61.50
66928;DHT22;59882;45.624;11.698;2022-08-26T02:31:31;25.90;61.50
66928;DHT22;59882;45.624;11.698;2022-08-26T02:34:10;25.90;61.00
66928;DHT22;59882;45.624;11.698;2022-08-26T02:36:36;25.90;61.40
66928;DHT22;59882;45.624;11.698;2022-08-26T02:39:03;25.80;61.30
66928;DHT22;59882;45.624;11.698;2022-08-26T02:41:28;25.70;61.60
66928;DHT22;59882;45.624;11.698;2022-08-26T02:43:54;25.80;61.80
66928;DHT22;59882;45.624;11.698;2022-08-26T02:46:20;25.70;61.60
66928;DHT22;59882;45.624;11.698;2022-08-26T02:48:45;25.70;61.60
66928;DHT22;59882;45.624;11.698;2022-08-26T02:51:11;25.60;61.60
66928;DHT22;59882;45.624;11.698;2022-08-26T02:53:37;25.60;61.70
66928;DHT22;59882;45.624;11.698;2022-08-26T02:56:06;25.60;62.30
66928;DHT22;59882;45.624;11.698;2022-08-26T02:58:32;25.50;62.10
66928;DHT22;59882;45.624;11.698;2022-08-26T03:00:57;25.50;62.10
66928;DHT22;59882;45.624;11.698;2022-08-26T03:03:24;25.40;62.30
66928;DHT22;59882;45.624;11.698;2022-08-26T03:05:51;25.40;62.10
66928;DHT22;59882;45.624;11.698;2022-08-26T03:08:17;25.40;62.50
66928;DHT22;59882;45.624;11.698;2022-08-26T03:10:42;25.40;62.50
66928;DHT22;59882;45.624;11.698;2022-08-26T03:13:08;25.40;62.40
66928;DHT22;59882;45.624;11.698;2022-08-26T03:15:34;25.40;62.60
66928;DHT22;59882;45.624;11.698;2022-08-26T03:17:59;25.40;62.40
66928;DHT22;59882;45.624;11.698;2022-08-26T03:20:25;25.40;62.30
66928;DHT22;59882;45.624;11.698;2022-08-26T03:22:51;25.40;62.40
66928;DHT22;59882;45.624;11.698;2022-08-26T03:25:18;25.30;62.40
66928;DHT22;59882;45.624;11.698;2022-08-26T03:27:44;25.30;62.00
66928;DHT22;59882;45.624;11.698;2022-08-26T03:30:12;25.30;62.20
66928;DHT22;59882;45.624;11.698;2022-08-26T03:32:56;25.30;62.30
66928;DHT22;59882;45.624;11.698;2022-08-26T03:35:22;25.40;62.20
66928;DHT22;59882;45.624;11.698;2022-08-26T03:37:48;25.30;61.90
66928;DHT22;59882;45.624;11.698;2022-08-26T03:40:13;25.40;61.80
66928;DHT22;59882;45.624;11.698;2022-08-26T03:42:40;25.40;61.90
66928;DHT22;59882;45.624;11.698;2022-08-26T03:45:08;25.40;61.40
66928;DHT22;59882;45.624;11.698;2022-08-26T03:47:35;25.40;61.50
66928;DHT22;59882;45.624;11.698;2022-08-26T03:50:00;25.40;61.40
66928;DHT22;59882;45.624;11.698;2022-08-26T03:52:26;25.40;61.50
66928;DHT22;59882;45.624;11.698;2022-08-26T03:54:52;25.40;61.30
66928;DHT22;59882;45.624;11.698;2022-08-26T03:57:18;25.40;61.30
66928;DHT22;59882;45.624;11.698;2022-08-26T03:59:44;25.40;61.70
66928;DHT22;59882;45.624;11.698;2022-08-26T04:02:09;25.30;61.40
66928;DHT22;59882;45.624;11.698;2022-08-26T04:04:35;25.30;61.40
66928;DHT22;59882;45.624;11.698;2022-08-26T04:07:01;25.40;61.60
66928;DHT22;59882;45.624;11.698;2022-08-26T04:09:27;25.30;61.70
66928;DHT22;59882;45.624;11.698;2022-08-26T04:11:53;25.30;61.70
66928;DHT22;59882;45.624;11.698;2022-08-26T04:14:22;25.30;61.90
66928;DHT22;59882;45.624;11.698;2022-08-26T04:16:50;25.20;61.60
66928;DHT22;59882;45.624;11.698;2022-08-26T04:19:17;25.30;62.10
66928;DHT22;59882;45.624;11.698;2022-08-26T04:21:43;25.20;61.80
66928;DHT22;59882;45.624;11.698;2022-08-26T04:24:11;25.20;61.80
66928;DHT22;59882;45.624;11.698;2022-08-26T04:26:37;25.20;62.30
66928;DHT22;59882;45.624;11.698;2022-08-26T04:29:09;25.20;62.50
66928;DHT22;59882;45.624;11.698;2022-08-26T04:31:35;25.10;62.50
66928;DHT22;59882;45.624;11.698;2022-08-26T04:34:02;25.00;62.90
66928;DHT22;59882;45.624;11.698;2022-08-26T04:36:28;24.90;62.70
66928;DHT22;59882;45.624;11.698;2022-08-26T04:38:54;24.90;63.20
66928;DHT22;59882;45.624;11.698;2022-08-26T04:41:20;24.90;62.90
66928;DHT22;59882;45.624;11.698;2022-08-26T04:43:46;24.90;63.60
66928;DHT22;59882;45.624;11.698;2022-08-26T04:46:16;24.80;63.50
66928;DHT22;59882;45.624;11.698;2022-08-26T04:48:42;24.80;63.30
66928;DHT22;59882;45.624;11.698;2022-08-26T04:51:08;24.80;63.00
66928;DHT22;59882;45.624;11.698;2022-08-26T04:53:34;24.80;63.10
66928;DHT22;59882;45.624;11.698;2022-08-26T04:55:59;24.80;63.40
66928;DHT22;59882;45.624;11.698;2022-08-26T04:58:26;24.90;63.30
66928;DHT22;59882;45.624;11.698;2022-08-26T05:00:53;24.80;63.20
66928;DHT22;59882;45.624;11.698;2022-08-26T05:03:20;24.70;63.10
66928;DHT22;59882;45.624;11.698;2022-08-26T05:05:47;24.70;63.10
66928;DHT22;59882;45.624;11.698;2022-08-26T05:08:15;24.70;62.90
66928;DHT22;59882;45.624;11.698;2022-08-26T05:10:46;24.80;62.90
66928;DHT22;59882;45.624;11.698;2022-08-26T05:13:14;24.80;63.20
66928;DHT22;59882;45.624;11.698;2022-08-26T05:15:40;24.80;63.60
66928;DHT22;59882;45.624;11.698;2022-08-26T05:18:06;24.80;63.00
66928;DHT22;59882;45.624;11.698;2022-08-26T05:20:37;24.80;63.40
66928;DHT22;59882;45.624;11.698;2022-08-26T05:23:03;24.90;63.50
66928;DHT22;59882;45.624;11.698;2022-08-26T05:25:29;24.80;63.60
66928;DHT22;59882;45.624;11.698;2022-08-26T05:27:55;24.90;63.70
66928;DHT22;59882;45.624;11.698;2022-08-26T05:30:22;24.90;63.50
66928;DHT22;59882;45.624;11.698;2022-08-26T05:32:49;24.90;63.30
66928;DHT22;59882;45.624;11.698;2022-08-26T05:35:15;24.90;63.00
66928;DHT22;59882;45.624;11.698;2022-08-26T05:37:42;24.90;63.20
66928;DHT22;59882;45.624;11.698;2022-08-26T05:40:07;24.90;63.30
66928;DHT22;59882;45.624;11.698;2022-08-26T05:42:33;24.90;63.20
66928;DHT22;59882;45.624;11.698;2022-08-26T05:44:59;24.90;63.30
66928;DHT22;59882;45.624;11.698;2022-08-26T05:47:26;24.90;63.20
66928;DHT22;59882;45.624;11.698;2022-08-26T05:49:52;24.90;63.60
66928;DHT22;59882;45.624;11.698;2022-08-26T05:52:18;24.90;63.70
66928;DHT22;59882;45.624;11.698;2022-08-26T05:54:43;24.90;63.80
66928;DHT22;59882;45.624;11.698;2022-08-26T05:57:09;24.90;63.80
66928;DHT22;59882;45.624;11.698;2022-08-26T05:59:37;24.90;63.60
66928;DHT22;59882;45.624;11.698;2022-08-26T06:02:03;24.90;63.60
66928;DHT22;59882;45.624;11.698;2022-08-26T06:04:29;24.90;63.40
66928;DHT22;59882;45.624;11.698;2022-08-26T06:06:56;25.00;63.50
66928;DHT22;59882;45.624;11.698;2022-08-26T06:09:22;25.00;63.30
66928;DHT22;59882;45.624;11.698;2022-08-26T06:11:47;25.10;63.00
66928;DHT22;59882;45.624;11.698;2022-08-26T06:14:13;25.10;63.00
66928;DHT22;59882;45.624;11.698;2022-08-26T06:16:40;25.20;62.60
66928;DHT22;59882;45.624;11.698;2022-08-26T06:19:10;25.20;62.70
66928;DHT22;59882;45.624;11.698;2022-08-26T06:21:36;25.20;62.80
66928;DHT22;59882;45.624;11.698;2022-08-26T06:24:06;25.30;62.50
66928;DHT22;59882;45.624;11.698;2022-08-26T06:26:59;25.30;62.60
66928;DHT22;59882;45.624;11.698;2022-08-26T06:29:32;25.30;62.80
66928;DHT22;59882;45.624;11.698;2022-08-26T06:31:59;25.40;63.00
66928;DHT22;59882;45.624;11.698;2022-08-26T06:34:25;25.40;62.90
66928;DHT22;59882;45.624;11.698;2022-08-26T06:36:53;25.40;62.80
66928;DHT22;59882;45.624;11.698;2022-08-26T06:39:19;25.50;62.50
66928;DHT22;59882;45.624;11.698;2022-08-26T06:41:45;25.50;62.30
66928;DHT22;59882;45.624;11.698;2022-08-26T06:44:13;25.60;62.30
66928;DHT22;59882;45.624;11.698;2022-08-26T06:46:39;25.70;62.20
66928;DHT22;59882;45.624;11.698;2022-08-26T06:49:05;25.70;61.80
66928;DHT22;59882;45.624;11.698;2022-08-26T06:51:34;25.90;61.70
66928;DHT22;59882;45.624;11.698;2022-08-26T06:54:01;25.90;61.70
66928;DHT22;59882;45.624;11.698;2022-08-26T06:56:31;25.90;61.50
66928;DHT22;59882;45.624;11.698;2022-08-26T06:58:57;26.00;61.20
66928;DHT22;59882;45.624;11.698;2022-08-26T07:01:29;26.10;60.70
66928;DHT22;59882;45.624;11.698;2022-08-26T07:03:57;26.10;60.80
66928;DHT22;59882;45.624;11.698;2022-08-26T07:06:25;26.10;60.50
66928;DHT22;59882;45.624;11.698;2022-08-26T07:08:53;26.20;60.30
66928;DHT22;59882;45.624;11.698;2022-08-26T07:11:19;26.20;60.30
66928;DHT22;59882;45.624;11.698;2022-08-26T07:13:45;26.30;60.00
66928;DHT22;59882;45.624;11.698;2022-08-26T07:16:13;26.40;60.00
66928;DHT22;59882;45.624;11.698;2022-08-26T07:18:41;26.40;60.30
66928;DHT22;59882;45.624;11.698;2022-08-26T07:21:09;26.50;60.20
66928;DHT22;59882;45.624;11.698;2022-08-26T07:23:35;26.50;60.70
66928;DHT22;59882;45.624;11.698;2022-08-26T07:26:09;26.50;60.50
66928;DHT22;59882;45.624;11.698;2022-08-26T07:28:35;26.50;60.80
66928;DHT22;59882;45.624;11.698;2022-08-26T07:31:08;26.50;59.60
66928;DHT22;59882;45.624;11.698;2022-08-26T07:33:35;26.60;59.80
66928;DHT22;59882;45.624;11.698;2022-08-26T07:36:01;26.60;59.90
66928;DHT22;59882;45.624;11.698;2022-08-26T07:38:27;26.60;59.90
66928;DHT22;59882;45.624;11.698;2022-08-26T07:40:53;26.70;59.80
66928;DHT22;59882;45.624;11.698;2022-08-26T07:43:19;26.80;59.70
66928;DHT22;59882;45.624;11.698;2022-08-26T07:45:44;26.80;59.60
66928;DHT22;59882;45.624;11.698;2022-08-26T07:48:10;26.90;59.40
66928;DHT22;59882;45.624;11.698;2022-08-26T07:50:36;26.90;59.10
66928;DHT22;59882;45.624;11.698;2022-08-26T07:53:03;26.90;58.00
66928;DHT22;59882;45.624;11.698;2022-08-26T07:55:29;27.00;57.50
66928;DHT22;59882;45.624;11.698;2022-08-26T07:57:55;27.00;57.30
66928;DHT22;59882;45.624;11.698;2022-08-26T08:00:22;27.00;57.20
66928;DHT22;59882;45.624;11.698;2022-08-26T08:02:48;27.10;57.10
66928;DHT22;59882;45.624;11.698;2022-08-26T08:05:15;27.10;56.20
66928;DHT22;59882;45.624;11.698;2022-08-26T08:07:42;27.20;56.10
66928;DHT22;59882;45.624;11.698;2022-08-26T08:10:11;27.20;56.30
66928;DHT22;59882;45.624;11.698;2022-08-26T08:12:38;27.30;56.30
66928;DHT22;59882;45.624;11.698;2022-08-26T08:15:05;27.30;56.30
66928;DHT22;59882;45.624;11.698;2022-08-26T08:17:31;27.40;56.60
66928;DHT22;59882;45.624;11.698;2022-08-26T08:19:58;27.40;56.20
66928;DHT22;59882;45.624;11.698;2022-08-26T08:22:25;27.40;56.30
66928;DHT22;59882;45.624;11.698;2022-08-26T08:24:50;27.40;56.00
66928;DHT22;59882;45.624;11.698;2022-08-26T08:27:16;27.40;54.90
66928;DHT22;59882;45.624;11.698;2022-08-26T08:29:42;27.40;54.80
66928;DHT22;59882;45.624;11.698;2022-08-26T08:32:07;27.50;55.00
66928;DHT22;59882;45.624;11.698;2022-08-26T08:34:33;27.50;54.80
66928;DHT22;59882;45.624;11.698;2022-08-26T08:36:59;27.50;54.90
66928;DHT22;59882;45.624;11.698;2022-08-26T08:39:24;27.60;54.80
66928;DHT22;59882;45.624;11.698;2022-08-26T08:44:38;27.70;54.70
66928;DHT22;59882;45.624;11.698;2022-08-26T08:47:23;27.70;54.70
66928;DHT22;59882;45.624;11.698;2022-08-26T08:49:53;27.80;54.60
66928;DHT22;59882;45.624;11.698;2022-08-26T08:54:50;27.80;54.30
66928;DHT22;59882;45.624;11.698;2022-08-26T09:00:15;27.90;53.40
66928;DHT22;59882;45.624;11.698;2022-08-26T09:05:30;27.90;53.60
66928;DHT22;59882;45.624;11.698;2022-08-26T09:08:06;28.00;53.30
66928;DHT22;59882;45.624;11.698;2022-08-26T09:10:40;28.00;53.40
66928;DHT22;59882;45.624;11.698;2022-08-26T09:13:10;28.00;53.30
66928;DHT22;59882;45.624;11.698;2022-08-26T09:21:03;28.10;52.80
66928;DHT22;59882;45.624;11.698;2022-08-26T09:23:30;28.10;52.80
66928;DHT22;59882;45.624;11.698;2022-08-26T09:25:59;28.20;52.70
66928;DHT22;59882;45.624;11.698;2022-08-26T09:28:28;28.20;52.80
66928;DHT22;59882;45.624;11.698;2022-08-26T09:31:10;28.30;52.80
66928;DHT22;59882;45.624;11.698;2022-08-26T09:33:37;28.30;52.60
66928;DHT22;59882;45.624;11.698;2022-08-26T09:36:34;28.30;52.30
66928;DHT22;59882;45.624;11.698;2022-08-26T09:39:00;28.40;52.40
66928;DHT22;59882;45.624;11.698;2022-08-26T09:41:32;28.40;52.40
66928;DHT22;59882;45.624;11.698;2022-08-26T09:46:34;28.50;52.30
66928;DHT22;59882;45.624;11.698;2022-08-26T09:54:36;28.60;51.20
66928;DHT22;59882;45.624;11.698;2022-08-26T09:57:31;28.60;51.50
66928;DHT22;59882;45.624;11.698;2022-08-26T09:59:57;28.70;51.70
66928;DHT22;59882;45.624;11.698;2022-08-26T10:04:58;28.70;51.50
66928;DHT22;59882;45.624;11.698;2022-08-26T10:10:32;28.80;51.30
66928;DHT22;59882;45.624;11.698;2022-08-26T10:15:35;28.90;51.10
66928;DHT22;59882;45.624;11.698;2022-08-26T10:18:14;29.00;50.30
66928;DHT22;59882;45.624;11.698;2022-08-26T10:23:30;29.00;49.90
66928;DHT22;59882;45.624;11.698;2022-08-26T10:26:07;29.10;50.20
66928;DHT22;59882;45.624;11.698;2022-08-26T10:28:51;29.20;50.30
66928;DHT22;59882;45.624;11.698;2022-08-26T10:31:28;29.40;50.00
66928;DHT22;59882;45.624;11.698;2022-08-26T10:33:58;29.50;50.80
66928;DHT22;59882;45.624;11.698;2022-08-26T10:36:25;29.60;50.50
66928;DHT22;59882;45.624;11.698;2022-08-26T10:39:32;29.70;50.00
66928;DHT22;59882;45.624;11.698;2022-08-26T10:42:03;29.80;50.40
66928;DHT22;59882;45.624;11.698;2022-08-26T10:44:35;29.90;49.70
66928;DHT22;59882;45.624;11.698;2022-08-26T10:47:18;29.90;49.10
66928;DHT22;59882;45.624;11.698;2022-08-26T10:49:48;30.00;48.70
66928;DHT22;59882;45.624;11.698;2022-08-26T10:52:24;30.10;48.80
66928;DHT22;59882;45.624;11.698;2022-08-26T11:00:24;30.20;48.00
66928;DHT22;59882;45.624;11.698;2022-08-26T11:03:30;30.30;47.70
66928;DHT22;59882;45.624;11.698;2022-08-26T11:08:53;30.50;47.80
66928;DHT22;59882;45.624;11.698;2022-08-26T11:25:08;30.60;44.40
66928;DHT22;59882;45.624;11.698;2022-08-26T11:40:15;30.90;44.90
66928;DHT22;59882;45.624;11.698;2022-08-26T11:42:43;30.90;44.70
66928;DHT22;59882;45.624;11.698;2022-08-26T11:45:34;30.90;44.60
66928;DHT22;59882;45.624;11.698;2022-08-26T11:48:21;31.00;44.30
66928;DHT22;59882;45.624;11.698;2022-08-26T11:53:27;31.00;45.20
66928;DHT22;59882;45.624;11.698;2022-08-26T11:55:55;31.20;44.10
66928;DHT22;59882;45.624;11.698;2022-08-26T11:58:23;31.20;43.70
66928;DHT22;59882;45.624;11.698;2022-08-26T12:01:20;31.30;43.70
66928;DHT22;59882;45.624;11.698;2022-08-26T12:03:40;31.40;43.10
66928;DHT22;59882;45.624;11.698;2022-08-26T12:06:37;31.50;43.10
66928;DHT22;59882;45.624;11.698;2022-08-26T12:09:13;31.60;43.40
66928;DHT22;59882;45.624;11.698;2022-08-26T12:11:44;31.60;44.00
66928;DHT22;59882;45.624;11.698;2022-08-26T12:14:22;31.70;42.60
66928;DHT22;59882;45.624;11.698;2022-08-26T12:16:49;31.90;41.90
66928;DHT22;59882;45.624;11.698;2022-08-26T12:19:29;31.90;41.00
66928;DHT22;59882;45.624;11.698;2022-08-26T12:22:03;31.90;41.80
66928;DHT22;59882;45.624;11.698;2022-08-26T12:24:31;32.00;43.40
66928;DHT22;59882;45.624;11.698;2022-08-26T12:27:22;32.10;43.70
66928;DHT22;59882;45.624;11.698;2022-08-26T12:32:32;32.50;43.20
66928;DHT22;59882;45.624;11.698;2022-08-26T12:35:00;32.80;41.90
66928;DHT22;59882;45.624;11.698;2022-08-26T12:37:33;33.00;40.70
66928;DHT22;59882;45.624;11.698;2022-08-26T12:43:08;33.40;41.70
66928;DHT22;59882;45.624;11.698;2022-08-26T12:46:01;33.70;41.70
66928;DHT22;59882;45.624;11.698;2022-08-26T12:48:31;33.90;39.80
66928;DHT22;59882;45.624;11.698;2022-08-26T12:50:59;34.00;39.50
66928;DHT22;59882;45.624;11.698;2022-08-26T12:53:31;34.70;38.10
66928;DHT22;59882;45.624;11.698;2022-08-26T12:55:59;35.70;35.80
66928;DHT22;59882;45.624;11.698;2022-08-26T12:58:33;36.80;34.40
66928;DHT22;59882;45.624;11.698;2022-08-26T13:08:58;41.30;28.30
66928;DHT22;59882;45.624;11.698;2022-08-26T13:12:17;42.30;26.40
66928;DHT22;59882;45.624;11.698;2022-08-26T13:14:20;43.00;27.30
66928;DHT22;59882;45.624;11.698;2022-08-26T13:16:46;43.40;27.00
66928;DHT22;59882;45.624;11.698;2022-08-26T13:19:14;43.80;26.40
66928;DHT22;59882;45.624;11.698;2022-08-26T13:21:47;44.20;25.60
66928;DHT22;59882;45.624;11.698;2022-08-26T13:24:16;44.50;24.90
66928;DHT22;59882;45.624;11.698;2022-08-26T13:26:45;45.00;24.70
66928;DHT22;59882;45.624;11.698;2022-08-26T13:29:11;45.30;24.50
66928;DHT22;59882;45.624;11.698;2022-08-26T13:31:39;45.30;24.00
66928;DHT22;59882;45.624;11.698;2022-08-26T13:34:07;45.20;24.80
66928;DHT22;59882;45.624;11.698;2022-08-26T13:36:33;45.20;24.90
66928;DHT22;59882;45.624;11.698;2022-08-26T13:38:59;45.20;24.10
66928;DHT22;59882;45.624;11.698;2022-08-26T13:41:25;45.10;23.70
66928;DHT22;59882;45.624;11.698;2022-08-26T13:43:50;45.00;23.70
66928;DHT22;59882;45.624;11.698;2022-08-26T13:46:17;44.60;24.40
66928;DHT22;59882;45.624;11.698;2022-08-26T13:48:44;44.30;24.40
66928;DHT22;59882;45.624;11.698;2022-08-26T13:51:10;43.90;25.30
66928;DHT22;59882;45.624;11.698;2022-08-26T13:53:36;43.80;25.40
66928;DHT22;59882;45.624;11.698;2022-08-26T13:56:02;43.90;24.80
66928;DHT22;59882;45.624;11.698;2022-08-26T13:58:28;44.00;24.90
66928;DHT22;59882;45.624;11.698;2022-08-26T14:00:55;44.10;24.70
66928;DHT22;59882;45.624;11.698;2022-08-26T14:03:21;44.10;24.30
66928;DHT22;59882;45.624;11.698;2022-08-26T14:05:47;44.20;24.10
66928;DHT22;59882;45.624;11.698;2022-08-26T14:08:13;44.10;24.60
66928;DHT22;59882;45.624;11.698;2022-08-26T14:10:39;44.00;24.70
66928;DHT22;59882;45.624;11.698;2022-08-26T14:13:05;43.90;25.10
66928;DHT22;59882;45.624;11.698;2022-08-26T14:15:33;43.70;25.40
66928;DHT22;59882;45.624;11.698;2022-08-26T14:18:01;43.70;24.80
66928;DHT22;59882;45.624;11.698;2022-08-26T14:20:30;43.90;24.90
66928;DHT22;59882;45.624;11.698;2022-08-26T14:22:56;44.30;24.70
66928;DHT22;59882;45.624;11.698;2022-08-26T14:25:22;44.70;23.90
66928;DHT22;59882;45.624;11.698;2022-08-26T14:27:49;44.90;22.80
66928;DHT22;59882;45.624;11.698;2022-08-26T14:30:16;44.90;23.00
66928;DHT22;59882;45.624;11.698;2022-08-26T14:32:46;44.90;23.70
66928;DHT22;59882;45.624;11.698;2022-08-26T14:35:15;45.30;23.50
66928;DHT22;59882;45.624;11.698;2022-08-26T14:37:42;45.50;23.40
66928;DHT22;59882;45.624;11.698;2022-08-26T14:40:08;45.50;22.40
66928;DHT22;59882;45.624;11.698;2022-08-26T14:42:34;45.50;22.30
66928;DHT22;59882;45.624;11.698;2022-08-26T14:45:02;45.50;23.10
66928;DHT22;59882;45.624;11.698;2022-08-26T14:47:29;45.50;23.10
66928;DHT22;59882;45.624;11.698;2022-08-26T14:49:55;45.60;23.60
66928;DHT22;59882;45.624;11.698;2022-08-26T14:52:20;45.70;23.00
66928;DHT22;59882;45.624;11.698;2022-08-26T14:54:46;45.90;22.70
66928;DHT22;59882;45.624;11.698;2022-08-26T14:57:12;46.00;22.40
66928;DHT22;59882;45.624;11.698;2022-08-26T14:59:44;46.00;22.90
66928;DHT22;59882;45.624;11.698;2022-08-26T15:02:12;45.90;23.00
66928;DHT22;59882;45.624;11.698;2022-08-26T15:04:38;45.90;23.00
66928;DHT22;59882;45.624;11.698;2022-08-26T15:07:05;45.90;22.90
66928;DHT22;59882;45.624;11.698;2022-08-26T15:09:34;46.10;21.90
66928;DHT22;59882;45.624;11.698;2022-08-26T15:12:01;46.00;22.40
66928;DHT22;59882;45.624;11.698;2022-08-26T15:14:27;45.80;22.30
66928;DHT22;59882;45.624;11.698;2022-08-26T15:16:55;45.60;22.40
66928;DHT22;59882;45.624;11.698;2022-08-26T15:19:23;45.00;22.80
66928;DHT22;59882;45.624;11.698;2022-08-26T15:21:49;44.50;22.90
66928;DHT22;59882;45.624;11.698;2022-08-26T15:24:18;44.20;23.40
66928;DHT22;59882;45.624;11.698;2022-08-26T15:26:44;44.00;23.90
66928;DHT22;59882;45.624;11.698;2022-08-26T15:29:11;43.70;23.70
66928;DHT22;59882;45.624;11.698;2022-08-26T15:31:36;43.40;24.50
66928;DHT22;59882;45.624;11.698;2022-08-26T15:34:06;43.00;24.90
66928;DHT22;59882;45.624;11.698;2022-08-26T15:36:33;42.70;24.70
66928;DHT22;59882;45.624;11.698;2022-08-26T15:39:00;42.50;24.90
66928;DHT22;59882;45.624;11.698;2022-08-26T15:41:26;42.50;25.20
66928;DHT22;59882;45.624;11.698;2022-08-26T15:43:52;42.20;25.60
66928;DHT22;59882;45.624;11.698;2022-08-26T15:46:18;42.00;26.10
66928;DHT22;59882;45.624;11.698;2022-08-26T15:48:44;41.90;26.30
66928;DHT22;59882;45.624;11.698;2022-08-26T15:53:44;41.60;25.50
66928;DHT22;59882;45.624;11.698;2022-08-26T15:56:10;41.30;25.90
66928;DHT22;59882;45.624;11.698;2022-08-26T15:58:36;41.10;26.10
66928;DHT22;59882;45.624;11.698;2022-08-26T16:01:01;40.80;26.70
66928;DHT22;59882;45.624;11.698;2022-08-26T16:03:27;40.40;27.30
66928;DHT22;59882;45.624;11.698;2022-08-26T16:05:53;40.40;27.40
66928;DHT22;59882;45.624;11.698;2022-08-26T16:08:19;40.30;27.70
66928;DHT22;59882;45.624;11.698;2022-08-26T16:10:46;40.40;28.30
66928;DHT22;59882;45.624;11.698;2022-08-26T16:13:12;40.40;26.90
66928;DHT22;59882;45.624;11.698;2022-08-26T16:15:38;40.40;27.20
66928;DHT22;59882;45.624;11.698;2022-08-26T16:18:05;40.40;27.60
66928;DHT22;59882;45.624;11.698;2022-08-26T16:20:33;40.40;27.50
66928;DHT22;59882;45.624;11.698;2022-08-26T16:23:00;40.20;27.70
66928;DHT22;59882;45.624;11.698;2022-08-26T16:25:27;39.90;27.70
66928;DHT22;59882;45.624;11.698;2022-08-26T16:27:53;39.60;28.20
66928;DHT22;59882;45.624;11.698;2022-08-26T16:30:19;39.40;28.30
66928;DHT22;59882;45.624;11.698;2022-08-26T16:32:46;39.10;28.70
66928;DHT22;59882;45.624;11.698;2022-08-26T16:35:12;38.80;29.10
66928;DHT22;59882;45.624;11.698;2022-08-26T16:37:38;38.50;29.40
66928;DHT22;59882;45.624;11.698;2022-08-26T16:40:04;38.20;29.80
66928;DHT22;59882;45.624;11.698;2022-08-26T16:42:31;38.00;30.10
66928;DHT22;59882;45.624;11.698;2022-08-26T16:44:57;38.00;30.10
66928;DHT22;59882;45.624;11.698;2022-08-26T16:47:24;38.00;30.30
66928;DHT22;59882;45.624;11.698;2022-08-26T16:49:50;38.10;29.90
66928;DHT22;59882;45.624;11.698;2022-08-26T16:52:16;38.10;29.50
66928;DHT22;59882;45.624;11.698;2022-08-26T16:54:41;38.10;29.70
66928;DHT22;59882;45.624;11.698;2022-08-26T16:57:08;38.00;30.30
66928;DHT22;59882;45.624;11.698;2022-08-26T16:59:34;38.00;30.60
66928;DHT22;59882;45.624;11.698;2022-08-26T17:02:01;37.80;30.60